Time;durP1;ratioP1;P1;durP2;ratioP2;P2;SDS_P1;SDS_P2;PMS_P1;PMS_P2;Temp;Humidity;BMP_temperature;BMP_pressure;BME280_temperature;BME280_humidity;BME280_pressure;Samples;Min_cycle;Max_cycle;Signal;HPM_P1;HPM_P2
2022/12/01 00:02:07;;;;;;;47.30;21.30;;;;;;;5.13;100.00;94444.16;5078853;28;20028;-90
2022/12/01 00:04:33;;;;;;;53.10;22.10;;;;;;;4.98;100.00;94449.03;5077864;28;20020;-90
2022/12/01 00:06:58;;;;;;;54.15;22.15;;;;;;;4.98;100.00;94441.25;5077574;28;20028;-91
2022/12/01 00:12:08;;;;;;;57.85;22.73;;;;;;;5.00;100.00;94442.63;5078534;28;20026;-90
2022/12/01 00:14:33;;;;;;;56.78;22.08;;;;;;;5.05;100.00;94434.91;5078373;28;20020;-90
2022/12/01 00:16:58;;;;;;;55.47;22.17;;;;;;;5.67;100.00;94445.63;5077175;28;20028;-90
2022/12/01 00:19:27;;;;;;;54.25;21.42;;;;;;;5.28;100.00;94437.66;5078604;28;20029;-90
2022/12/01 00:21:53;;;;;;;59.80;22.48;;;;;;;4.93;100.00;94447.94;5076890;28;20460;-90
2022/12/01 00:24:18;;;;;;;57.85;22.40;;;;;;;5.19;100.00;94448.44;5077301;28;20050;-90
2022/12/01 00:26:44;;;;;;;53.50;22.70;;;;;;;5.64;100.00;94449.47;5078207;28;20047;-90
2022/12/01 00:29:22;;;;;;;52.15;21.75;;;;;;;5.61;100.00;94452.56;5077212;28;20059;-90
2022/12/01 00:31:47;;;;;;;130.32;23.67;;;;;;;5.39;100.00;94442.03;5077991;28;20056;-90
2022/12/01 00:34:21;;;;;;;92.00;20.98;;;;;;;5.37;100.00;94451.88;5078314;28;20386;-90
2022/12/01 00:36:46;;;;;;;53.42;21.35;;;;;;;5.45;100.00;94443.72;5076844;28;20119;-90
2022/12/01 00:39:12;;;;;;;55.30;22.02;;;;;;;5.63;100.00;94447.13;5076681;28;20123;-90
2022/12/01 00:41:37;;;;;;;48.90;21.33;;;;;;;5.81;100.00;94446.16;5076778;28;20385;-90
2022/12/01 00:44:03;;;;;;;418.80;32.28;;;;;;;4.84;100.00;94440.72;5076678;28;20024;-91
2022/12/01 00:46:28;;;;;;;247.57;28.13;;;;;;;4.37;100.00;94443.13;5076604;28;20028;-90
2022/12/01 00:48:58;;;;;;;53.20;21.90;;;;;;;5.05;100.00;94453.09;5077991;28;20039;-90
2022/12/01 00:51:23;;;;;;;368.98;31.40;;;;;;;4.85;100.00;94448.28;5076167;28;20370;-90
2022/12/01 00:53:49;;;;;;;57.53;24.00;;;;;;;5.21;100.00;94453.38;5076215;28;20040;-90
2022/12/01 00:56:14;;;;;;;134.98;24.63;;;;;;;5.09;100.00;94454.22;5076663;28;20028;-90
2022/12/01 00:58:39;;;;;;;58.88;23.52;;;;;;;5.50;100.00;94458.59;5076546;28;20034;-90
2022/12/01 01:01:05;;;;;;;66.55;23.15;;;;;;;5.50;100.00;94459.38;5059773;28;20024;-90
2022/12/01 01:03:32;;;;;;;57.00;22.10;;;;;;;5.75;100.00;94467.88;5076165;28;20051;-90
2022/12/01 01:06:06;;;;;;;74.90;21.77;;;;;;;5.80;100.00;94463.53;5076532;28;20024;-90
2022/12/01 01:08:32;;;;;;;74.63;21.88;;;;;;;5.54;100.00;94466.72;5059572;28;20330;-90
2022/12/01 01:10:58;;;;;;;51.33;20.70;;;;;;;5.87;100.00;94466.00;5076344;28;20074;-90
2022/12/01 01:13:24;;;;;;;54.38;22.35;;;;;;;5.30;100.00;94469.41;5059267;28;20044;-90
2022/12/01 01:16:19;;;;;;;90.03;22.88;;;;;;;5.13;100.00;94464.16;5077545;28;20067;-91
2022/12/01 01:18:45;;;;;;;53.17;21.23;;;;;;;5.45;100.00;94469.69;5050802;28;20464;-90
2022/12/01 01:21:13;;;;;;;49.95;21.98;;;;;;;5.84;100.00;94469.06;5075888;28;20028;-92
2022/12/01 01:23:38;;;;;;;52.47;21.52;;;;;;;5.86;100.00;94474.03;5059441;28;20028;-90
2022/12/01 01:26:14;;;;;;;51.38;21.25;;;;;;;5.90;100.00;94464.75;5059470;28;20078;-90
2022/12/01 01:28:40;;;;;;;45.40;19.70;;;;;;;6.01;100.00;94468.31;5075851;28;20361;-90
2022/12/01 01:31:10;;;;;;;51.80;21.92;;;;;;;6.13;100.00;94458.66;5077198;28;20089;-90
2022/12/01 01:33:36;;;;;;;47.50;20.98;;;;;;;5.89;100.00;94458.75;5077559;28;20055;-90
2022/12/01 01:36:02;;;;;;;57.45;22.33;;;;;;;5.87;100.00;94455.59;5076093;28;20119;-90
2022/12/01 01:38:28;;;;;;;47.08;21.55;;;;;;;5.76;100.00;94454.66;5075619;28;20032;-90
2022/12/01 01:40:53;;;;;;;52.20;22.40;;;;;;;5.97;100.00;94451.59;5075541;28;20033;-90
2022/12/01 01:43:50;;;;;;;46.22;21.50;;;;;;;6.13;100.00;94447.44;5077333;28;20041;-91
2022/12/01 01:46:27;;;;;;;47.92;21.55;;;;;;;6.28;100.00;94449.50;5077156;28;20036;-90
2022/12/01 01:49:00;;;;;;;50.22;20.90;;;;;;;6.32;100.00;94445.38;5075590;28;20035;-90
2022/12/01 01:51:31;;;;;;;48.58;21.60;;;;;;;5.72;100.00;94450.91;5075467;28;20040;-90
2022/12/01 01:54:02;;;;;;;46.60;20.73;;;;;;;6.20;100.00;94450.69;5076717;28;20028;-90
2022/12/01 01:56:27;;;;;;;49.15;21.48;;;;;;;6.32;100.00;94450.59;5058790;28;20047;-90
2022/12/01 01:58:53;;;;;;;45.40;20.42;;;;;;;6.38;100.00;94447.03;5075369;28;20356;-90
2022/12/01 02:01:18;;;;;;;49.45;21.40;;;;;;;5.76;100.00;94446.84;5075231;28;20032;-90
2022/12/01 02:03:44;;;;;;;683.38;42.67;;;;;;;5.27;100.00;94439.50;5076892;28;20043;-90
2022/12/01 02:06:10;;;;;;;312.70;27.75;;;;;;;4.86;100.00;94436.88;5074863;28;20039;-90
2022/12/01 02:08:37;;;;;;;47.40;19.77;;;;;;;5.65;100.00;94432.88;5075721;28;20043;-90
2022/12/01 02:11:13;;;;;;;55.85;23.27;;;;;;;5.94;100.00;94434.63;5076396;28;20074;-90
2022/12/01 02:14:17;;;;;;;52.03;22.33;;;;;;;6.07;100.00;94428.34;5076568;28;20027;-90
2022/12/01 02:16:53;;;;;;;45.90;19.40;;;;;;;6.08;100.00;94435.94;5058856;28;20323;-89
2022/12/01 02:19:42;;;;;;;55.65;21.50;;;;;;;6.31;100.00;94436.81;5075547;28;20021;-90
2022/12/01 02:22:38;;;;;;;51.72;22.55;;;;;;;6.14;100.00;94430.81;5075508;28;20032;-90
2022/12/01 02:25:13;;;;;;;50.95;20.63;;;;;;;6.13;100.00;94422.22;5075291;28;20050;-90
2022/12/01 02:27:58;;;;;;;51.63;20.00;;;;;;;6.46;100.00;94422.44;5076385;28;20024;-90
2022/12/01 02:30:43;;;;;;;51.22;22.00;;;;;;;6.25;100.00;94421.34;5076264;28;20052;-90
2022/12/01 02:33:25;;;;;;;51.75;21.08;;;;;;;5.90;100.00;94423.91;5075199;28;20028;-91
2022/12/01 02:36:13;;;;;;;48.70;21.17;;;;;;;5.63;100.00;94424.50;5075218;28;20020;-90
2022/12/01 02:39:00;;;;;;;49.83;21.50;;;;;;;5.96;100.00;94424.00;5075084;28;20052;-90
2022/12/01 02:41:29;;;;;;;48.28;20.52;;;;;;;6.17;100.00;94418.13;5076095;28;20063;-90
2022/12/01 02:43:54;;;;;;;48.95;21.33;;;;;;;6.01;100.00;94424.09;5074992;28;20024;-90
2022/12/01 02:46:24;;;;;;;46.75;19.45;;;;;;;5.54;100.00;94415.53;5076470;28;20040;-90
2022/12/01 02:48:51;;;;;;;47.55;21.35;;;;;;;6.14;100.00;94418.59;5075245;28;20028;-89
2022/12/01 02:51:29;;;;;;;48.13;21.75;;;;;;;5.98;100.00;94414.16;5075082;28;20033;-89
2022/12/01 02:53:55;;;;;;;47.97;20.80;;;;;;;6.29;100.00;94407.59;5075243;28;20029;-90
2022/12/01 02:56:22;;;;;;;50.55;21.65;;;;;;;5.65;100.00;94411.28;5076162;28;20107;-89
2022/12/01 02:58:47;;;;;;;46.42;20.55;;;;;;;5.98;100.00;94404.53;5074965;28;20025;-90
2022/12/01 03:01:36;;;;;;;46.72;21.17;;;;;;;5.89;100.00;94405.97;5074812;28;20417;-89
2022/12/01 03:04:29;;;;;;;46.47;20.60;;;;;;;6.01;100.00;94408.47;5075469;28;20036;-90
2022/12/01 03:07:00;;;;;;;50.10;20.27;;;;;;;5.45;100.00;94396.94;5075143;28;20078;-90
2022/12/01 03:09:32;;;;;;;47.08;20.60;;;;;;;5.52;100.00;94405.38;5076324;28;20349;-90
2022/12/01 03:12:19;;;;;;;53.50;22.95;;;;;;;5.89;100.00;94401.53;5074725;28;20031;-89
2022/12/01 03:15:06;;;;;;;45.75;20.88;;;;;;;5.97;100.00;94404.78;5076225;28;20036;-90
2022/12/01 03:17:42;;;;;;;50.15;22.25;;;;;;;6.22;100.00;94404.41;5076320;28;20087;-90
2022/12/01 03:20:10;;;;;;;48.35;21.80;;;;;;;6.25;100.00;94403.16;5070476;28;20082;-90
2022/12/01 03:22:40;;;;;;;45.33;20.23;;;;;;;6.08;100.00;94404.72;5058216;28;20029;-90
2022/12/01 03:25:06;;;;;;;51.95;22.00;;;;;;;6.27;100.00;94404.47;5058157;28;20452;-89
2022/12/01 03:27:34;;;;;;;49.47;21.17;;;;;;;6.12;100.00;94412.03;5059816;28;20036;-90
2022/12/01 03:30:02;;;;;;;50.58;21.63;;;;;;;6.30;100.00;94403.19;5058168;28;20037;-89
2022/12/01 03:32:35;;;;;;;45.40;20.75;;;;;;;6.34;100.00;94401.69;5058607;28;20028;-89
2022/12/01 03:35:09;;;;;;;50.65;21.80;;;;;;;6.44;100.00;94401.03;5063832;28;20036;-90
2022/12/01 03:37:58;;;;;;;54.45;22.90;;;;;;;5.84;100.00;94406.66;5070786;28;20090;-89
2022/12/01 03:40:28;;;;;;;52.45;21.40;;;;;;;5.55;100.00;94418.91;5068479;28;20044;-90
2022/12/01 03:43:18;;;;;;;49.03;20.50;;;;;;;6.30;100.00;94403.19;5061257;28;20381;-89
2022/12/01 03:46:06;;;;;;;53.00;21.83;;;;;;;5.98;100.00;94414.94;5070986;28;20055;-89
2022/12/01 03:48:32;;;;;;;54.92;22.85;;;;;;;5.86;100.00;94416.81;5072009;28;20040;-89
2022/12/01 03:51:19;;;;;;;52.08;21.92;;;;;;;5.80;100.00;94410.75;5077813;28;20032;-90
2022/12/01 03:54:15;;;;;;;52.53;20.75;;;;;;;6.03;100.00;94407.25;5078882;28;20486;-91
2022/12/01 03:56:48;;;;;;;48.88;21.65;;;;;;;6.42;100.00;94405.69;5078727;28;20032;-90
2022/12/01 03:59:19;;;;;;;50.35;22.08;;;;;;;6.06;100.00;94408.56;5077534;28;20078;-90
2022/12/01 04:01:45;;;;;;;48.72;21.88;;;;;;;6.06;100.00;94409.38;5077352;28;20032;-89
2022/12/01 04:04:12;;;;;;;49.17;21.95;;;;;;;6.27;100.00;94404.47;5075974;28;20089;-89
2022/12/01 04:06:39;;;;;;;49.50;22.00;;;;;;;5.90;100.00;94407.53;5077487;28;20032;-90
2022/12/01 04:09:04;;;;;;;52.40;22.45;;;;;;;5.96;100.00;94393.59;5077356;28;20438;-89
2022/12/01 04:14:14;;;;;;;49.95;21.00;;;;;;;5.52;100.00;94401.97;5078558;28;20365;-88
2022/12/01 04:16:39;;;;;;;48.72;21.00;;;;;;;5.51;100.00;94400.41;5078555;28;20032;-89
2022/12/01 04:19:05;;;;;;;49.53;21.50;;;;;;;5.18;100.00;94401.91;5077119;28;20036;-89
2022/12/01 04:21:30;;;;;;;49.72;20.95;;;;;;;5.85;100.00;94407.44;5077397;28;20036;-89
2022/12/01 04:23:59;;;;;;;51.47;21.25;;;;;;;5.73;100.00;94410.13;5077220;28;20145;-89
2022/12/01 04:26:24;;;;;;;40.08;19.27;;;;;;;6.18;100.00;94409.28;5078502;28;20043;-89
2022/12/01 04:28:51;;;;;;;42.47;19.38;;;;;;;6.26;100.00;94407.31;5077837;28;20422;-89
2022/12/01 04:31:16;;;;;;;40.95;18.67;;;;;;;6.38;100.00;94410.59;5078409;28;20093;-89
2022/12/01 04:33:42;;;;;;;45.35;20.20;;;;;;;6.38;100.00;94409.81;5078450;28;20118;-89
2022/12/01 04:36:08;;;;;;;50.08;20.67;;;;;;;5.91;100.00;94404.69;5077983;28;20032;-89
2022/12/01 04:38:35;;;;;;;46.45;20.45;;;;;;;5.73;100.00;94404.91;5078318;28;20036;-89
2022/12/01 04:41:11;;;;;;;47.17;20.77;;;;;;;5.48;100.00;94406.88;5076938;28;20043;-90
2022/12/01 04:43:37;;;;;;;43.88;20.20;;;;;;;6.00;100.00;94410.28;5076517;28;20493;-89
2022/12/01 04:46:03;;;;;;;47.67;19.63;;;;;;;6.38;100.00;94408.00;5076660;28;20122;-90
2022/12/01 04:48:29;;;;;;;43.63;19.90;;;;;;;6.16;100.00;94413.13;5076525;28;20029;-90
2022/12/01 04:50:54;;;;;;;45.78;20.55;;;;;;;6.29;100.00;94409.44;5076253;28;20350;-90
2022/12/01 04:53:20;;;;;;;44.80;20.13;;;;;;;6.07;100.00;94410.94;5078011;28;20036;-90
2022/12/01 04:55:45;;;;;;;44.88;19.13;;;;;;;6.14;100.00;94412.59;5076381;28;20036;-90
2022/12/01 04:58:11;;;;;;;47.42;20.73;;;;;;;5.89;100.00;94417.13;5077534;28;20032;-89
2022/12/01 05:00:36;;;;;;;43.20;19.60;;;;;;;6.03;100.00;94407.25;5076387;28;20044;-89
2022/12/01 05:03:02;;;;;;;43.67;19.00;;;;;;;6.46;100.00;94410.19;5076432;28;20045;-89
2022/12/01 05:05:28;;;;;;;41.25;19.10;;;;;;;6.54;100.00;94408.22;5077840;28;20042;-89
2022/12/01 05:07:53;;;;;;;45.38;20.35;;;;;;;6.16;100.00;94413.94;5076404;28;20115;-89
2022/12/01 05:10:19;;;;;;;46.03;19.42;;;;;;;5.76;100.00;94410.44;5077690;28;20040;-89
2022/12/01 05:12:47;;;;;;;45.78;19.75;;;;;;;6.00;100.00;94415.47;5077702;28;20028;-89
2022/12/01 05:15:13;;;;;;;48.75;20.77;;;;;;;6.38;100.00;94412.41;5077584;28;20067;-89
2022/12/01 05:17:38;;;;;;;47.35;20.20;;;;;;;5.98;100.00;94404.53;5075878;28;20398;-89
2022/12/01 05:22:51;;;;;;;46.78;19.95;;;;;;;6.20;100.00;94416.84;5076068;28;20093;-90
2022/12/01 05:25:17;;;;;;;47.80;21.08;;;;;;;5.76;100.00;94417.44;5074153;28;20051;-90
2022/12/01 05:27:42;;;;;;;50.78;21.27;;;;;;;6.05;100.00;94420.81;5064049;28;20421;-89
2022/12/01 05:30:08;;;;;;;47.13;19.95;;;;;;;6.24;100.00;94425.75;5075918;28;20032;-90
2022/12/01 05:32:34;;;;;;;49.70;21.15;;;;;;;6.02;100.00;94430.88;5076913;28;20029;-89
2022/12/01 05:34:59;;;;;;;45.35;19.25;;;;;;;6.36;100.00;94416.06;5077456;28;20097;-89
2022/12/01 05:37:24;;;;;;;50.30;20.45;;;;;;;6.38;100.00;94422.81;5077486;28;20043;-89
2022/12/01 05:39:50;;;;;;;47.00;20.10;;;;;;;6.31;100.00;94429.00;5076670;28;20032;-89
2022/12/01 05:42:15;;;;;;;48.33;20.38;;;;;;;6.58;100.00;94422.31;5076031;28;20131;-89
2022/12/01 05:44:40;;;;;;;46.70;19.10;;;;;;;6.59;100.00;94422.06;5075882;28;20077;-89
2022/12/01 05:47:06;;;;;;;48.83;20.58;;;;;;;6.39;100.00;94419.19;5065472;28;20033;-89
2022/12/01 05:49:31;;;;;;;39.95;18.20;;;;;;;6.53;100.00;94417.03;5070624;28;20044;-86
2022/12/01 05:51:57;;;;;;;46.88;20.05;;;;;;;6.55;100.00;94417.59;5073252;28;20036;-89
2022/12/01 05:54:22;;;;;;;44.97;20.63;;;;;;;6.55;100.00;94415.00;5076945;28;20043;-90
2022/12/01 05:56:47;;;;;;;46.45;19.88;;;;;;;6.67;100.00;94420.09;5076985;28;20036;-89
2022/12/01 05:59:13;;;;;;;46.80;20.60;;;;;;;6.60;100.00;94422.88;5075775;28;20024;-89
2022/12/01 06:01:38;;;;;;;48.90;20.70;;;;;;;6.46;100.00;94431.00;5077037;28;20521;-89
2022/12/01 06:04:04;;;;;;;52.47;21.60;;;;;;;6.47;100.00;94426.59;5077102;28;20107;-89
2022/12/01 06:06:29;;;;;;;46.40;20.05;;;;;;;6.60;100.00;94425.47;5076025;28;20142;-89
2022/12/01 06:09:07;;;;;;;44.33;20.08;;;;;;;6.50;100.00;94418.31;5075998;28;20036;-90
2022/12/01 06:11:33;;;;;;;51.08;21.50;;;;;;;5.97;100.00;94423.75;5076520;28;20024;-89
2022/12/01 06:13:58;;;;;;;49.47;22.40;;;;;;;5.94;100.00;94425.00;5076814;28;20078;-90
2022/12/01 06:16:24;;;;;;;49.90;21.25;;;;;;;6.38;100.00;94430.63;5075579;28;20040;-90
2022/12/01 06:18:49;;;;;;;51.17;21.67;;;;;;;6.04;100.00;94424.44;5077062;28;20043;-90
2022/12/01 06:21:14;;;;;;;52.95;23.05;;;;;;;5.87;100.00;94427.00;5076672;28;20430;-90
2022/12/01 06:23:40;;;;;;;54.15;23.02;;;;;;;5.76;100.00;94427.84;5076584;28;20025;-90
2022/12/01 06:26:05;;;;;;;51.47;21.67;;;;;;;5.73;100.00;94431.69;5076337;28;20025;-90
2022/12/01 06:28:31;;;;;;;53.70;23.48;;;;;;;5.72;100.00;94427.50;5076355;28;20024;-89
2022/12/01 06:30:56;;;;;;;53.42;22.15;;;;;;;6.15;100.00;94429.78;5076842;28;20032;-90
2022/12/01 06:33:22;;;;;;;51.53;22.20;;;;;;;5.92;100.00;94434.09;5076031;28;20031;-89
2022/12/01 06:35:47;;;;;;;48.63;22.10;;;;;;;5.80;100.00;94434.94;5076622;28;20028;-90
2022/12/01 06:38:13;;;;;;;52.60;22.80;;;;;;;6.06;100.00;94435.38;5076569;28;20040;-90
2022/12/01 06:40:38;;;;;;;59.15;23.25;;;;;;;6.28;100.00;94439.09;5076121;28;20150;-90
2022/12/01 06:43:04;;;;;;;50.90;22.58;;;;;;;5.96;100.00;94445.59;5075980;28;20024;-90
2022/12/01 06:45:30;;;;;;;50.83;22.10;;;;;;;5.72;100.00;94437.91;5076338;28;20036;-90
2022/12/01 06:47:56;;;;;;;48.33;21.95;;;;;;;6.16;100.00;94441.75;5075293;28;20039;-90
2022/12/01 06:50:22;;;;;;;51.17;21.90;;;;;;;6.12;100.00;94441.47;5074822;28;20115;-90
2022/12/01 06:52:48;;;;;;;50.05;23.02;;;;;;;6.19;100.00;94443.91;5079641;28;20035;-89
2022/12/01 06:55:14;;;;;;;50.67;20.98;;;;;;;5.82;100.00;94437.31;5079256;28;20033;-90
2022/12/01 06:57:39;;;;;;;48.25;21.60;;;;;;;5.92;100.00;94440.06;5078676;28;20105;-89
2022/12/01 07:00:05;;;;;;;56.05;22.70;;;;;;;5.78;100.00;94438.78;5078843;28;20055;-90
2022/12/01 07:02:34;;;;;;;48.88;21.85;;;;;;;6.05;100.00;94446.81;5078785;28;20031;-89
2022/12/01 07:04:59;;;;;;;51.03;22.42;;;;;;;6.28;100.00;94446.91;5080329;28;20077;-90
2022/12/01 07:07:24;;;;;;;54.67;23.05;;;;;;;6.43;100.00;94448.91;5078786;28;20484;-89
2022/12/01 07:09:50;;;;;;;58.88;22.85;;;;;;;6.20;100.00;94448.09;5078745;28;20020;-90
2022/12/01 07:12:15;;;;;;;55.42;21.88;;;;;;;6.39;100.00;94447.81;5078342;28;20346;-90
2022/12/01 07:14:41;;;;;;;52.75;22.42;;;;;;;6.28;100.00;94450.25;5078440;28;20020;-89
2022/12/01 07:17:08;;;;;;;49.22;21.73;;;;;;;6.33;100.00;94463.38;5061924;28;20023;-90
2022/12/01 07:19:33;;;;;;;48.42;21.35;;;;;;;6.29;100.00;94462.25;5078842;28;20023;-90
2022/12/01 07:21:59;;;;;;;53.15;22.20;;;;;;;6.25;100.00;94463.00;5078260;28;20351;-90
2022/12/01 07:24:24;;;;;;;50.08;20.50;;;;;;;6.58;100.00;94459.53;5078216;28;20036;-90
2022/12/01 07:26:50;;;;;;;43.80;19.48;;;;;;;6.83;100.00;94455.72;5078111;28;20024;-90
2022/12/01 07:29:15;;;;;;;44.05;17.85;;;;;;;6.93;100.00;94463.66;5078204;28;20067;-90
2022/12/01 07:31:41;;;;;;;44.17;19.13;;;;;;;6.67;100.00;94462.53;5078248;28;20059;-90
2022/12/01 07:34:09;;;;;;;48.75;19.92;;;;;;;6.51;100.00;94461.53;5075461;28;20032;-90
2022/12/01 07:36:35;;;;;;;44.95;19.25;;;;;;;6.62;100.00;94465.06;5057987;28;20342;-90
2022/12/01 07:39:16;;;;;;;44.13;20.08;;;;;;;6.30;100.00;94470.84;5041217;28;20033;-90
2022/12/01 07:41:41;;;;;;;45.47;19.90;;;;;;;6.60;100.00;94470.53;5058264;28;20405;-89
2022/12/01 07:44:09;;;;;;;44.90;19.33;;;;;;;6.67;100.00;94472.16;5058081;28;20029;-90
2022/12/01 07:46:34;;;;;;;45.65;19.35;;;;;;;6.63;100.00;94470.03;5057826;28;20032;-90
2022/12/01 07:52:21;;;;;;;49.13;20.30;;;;;;;6.61;100.00;94471.31;5059296;28;20048;-90
2022/12/01 07:54:47;;;;;;;50.30;20.00;;;;;;;6.46;100.00;94482.28;5057877;28;20331;-90
2022/12/01 07:57:13;;;;;;;54.13;22.25;;;;;;;6.48;100.00;94481.00;5041154;28;20029;-90
2022/12/01 07:59:39;;;;;;;49.42;21.13;;;;;;;6.23;100.00;94481.44;5041500;28;20116;-90
2022/12/01 08:02:04;;;;;;;45.33;19.73;;;;;;;6.71;100.00;94487.06;5058577;28;20425;-89
2022/12/01 08:04:30;;;;;;;46.05;20.48;;;;;;;6.73;100.00;94492.03;5057199;28;20381;-90
2022/12/01 08:06:55;;;;;;;54.97;20.33;;;;;;;6.13;100.00;94487.25;5056149;28;20028;-90
2022/12/01 08:09:21;;;;;;;51.67;18.88;;;;;;;6.07;100.00;94488.19;5061195;28;20063;-90
2022/12/01 08:11:46;;;;;;;44.63;19.23;;;;;;;6.48;100.00;94493.25;5061080;28;20040;-85
2022/12/01 08:14:12;;;;;;;44.70;18.85;;;;;;;6.35;100.00;94496.94;5079057;28;20043;-85
2022/12/01 08:16:37;;;;;;;48.55;20.65;;;;;;;6.08;100.00;94497.56;5078689;28;20434;-85
2022/12/01 08:19:10;;;;;;;47.10;20.10;;;;;;;6.06;100.00;94489.22;5077342;28;20032;-85
2022/12/01 08:21:36;;;;;;;45.17;19.70;;;;;;;6.27;100.00;94495.53;5077277;28;20034;-85
2022/12/01 08:24:03;;;;;;;42.65;18.02;;;;;;;6.19;100.00;94501.91;5078551;28;20033;-85
2022/12/01 08:26:28;;;;;;;38.45;17.23;;;;;;;6.31;100.00;94494.06;5077579;28;20425;-85
2022/12/01 08:29:10;;;;;;;36.63;16.45;;;;;;;6.55;100.00;94503.50;5076954;28;20032;-85
2022/12/01 08:31:36;;;;;;;45.22;17.17;;;;;;;6.42;100.00;94507.19;5078667;28;20039;-85
2022/12/01 08:34:05;;;;;;;36.05;15.38;;;;;;;6.50;100.00;94504.97;5076890;28;20433;-85
2022/12/01 08:36:30;;;;;;;31.10;13.70;;;;;;;6.92;100.00;94506.38;5078104;28;20040;-85
2022/12/01 08:38:55;;;;;;;46.95;16.92;;;;;;;6.46;100.00;94508.31;5076813;28;20035;-85
2022/12/01 08:41:22;;;;;;;34.60;13.82;;;;;;;6.89;100.00;94506.84;5077904;28;20170;-85
2022/12/01 08:43:47;;;;;;;37.20;16.15;;;;;;;6.23;100.00;94510.03;5075251;28;20068;-85
2022/12/01 08:46:13;;;;;;;33.28;14.52;;;;;;;6.64;100.00;94504.66;5076653;28;20117;-85
2022/12/01 08:48:39;;;;;;;103.65;43.03;;;;;;;7.05;100.00;94507.81;5059916;28;20086;-84
2022/12/01 08:51:07;;;;;;;48.45;21.50;;;;;;;7.18;100.00;94511.13;5076567;28;20041;-85
2022/12/01 08:53:34;;;;;;;39.47;16.85;;;;;;;6.44;100.00;94505.94;5069172;28;20032;-84
2022/12/01 08:56:05;;;;;;;32.03;14.43;;;;;;;7.14;100.00;94508.19;5057766;28;20086;-83
2022/12/01 08:58:31;;;;;;;32.58;14.90;;;;;;;6.57;100.00;94514.47;5057779;28;20441;-83
2022/12/01 09:01:06;;;;;;;31.13;14.40;;;;;;;6.63;100.00;94508.28;5056384;28;20028;-83
2022/12/01 09:03:32;;;;;;;35.13;14.27;;;;;;;7.54;100.00;94506.34;5057713;28;20115;-83
2022/12/01 09:06:24;;;;;;;33.42;14.45;;;;;;;7.31;100.00;94512.56;5057690;28;20354;-83
2022/12/01 09:08:49;;;;;;;29.58;13.68;;;;;;;6.84;100.00;94517.19;5056391;28;20081;-83
2022/12/01 09:11:17;;;;;;;30.42;13.35;;;;;;;6.88;100.00;94515.66;5055954;28;20339;-83
2022/12/01 09:13:44;;;;;;;29.15;12.80;;;;;;;7.46;100.00;94515.38;5055926;28;20029;-83
2022/12/01 09:16:12;;;;;;;29.10;13.07;;;;;;;7.98;100.00;94523.72;5056330;28;20054;-83
2022/12/01 09:18:38;;;;;;;27.15;12.77;;;;;;;7.66;100.00;94519.22;5056904;28;20346;-84
2022/12/01 09:21:18;;;;;;;27.58;12.77;;;;;;;7.20;100.00;94514.25;5055395;28;20430;-83
2022/12/01 09:23:45;;;;;;;30.08;13.75;;;;;;;7.15;100.00;94514.22;5055833;28;20035;-83
2022/12/01 09:26:11;;;;;;;32.85;12.63;;;;;;;6.90;100.00;94523.25;5056051;28;20036;-83
2022/12/01 09:28:36;;;;;;;27.00;11.93;;;;;;;6.95;100.00;94519.94;5055943;28;20033;-83
2022/12/01 09:31:06;;;;;;;27.50;10.93;;;;;;;6.59;100.00;94521.00;5056719;28;20032;-83
2022/12/01 09:33:32;;;;;;;25.77;11.02;;;;;;;7.15;100.00;94516.81;5055921;28;20021;-83
2022/12/01 09:35:58;;;;;;;26.58;11.48;;;;;;;7.66;100.00;94514.00;5057089;28;20075;-83
2022/12/01 09:38:24;;;;;;;17.60;7.90;;;;;;;7.71;100.00;94519.28;5055860;28;20029;-83
2022/12/01 09:40:50;;;;;;;19.65;9.07;;;;;;;8.07;100.00;94514.41;5056896;28;20476;-83
2022/12/01 09:43:18;;;;;;;18.83;8.43;;;;;;;8.19;100.00;94522.09;5055433;28;20037;-83
2022/12/01 09:45:51;;;;;;;19.73;7.93;;;;;;;8.43;100.00;94518.34;5055868;28;20111;-83
2022/12/01 09:48:26;;;;;;;16.85;7.63;;;;;;;8.54;100.00;94509.59;5055588;28;20393;-83
2022/12/01 09:50:52;;;;;;;13.57;7.05;;;;;;;8.19;100.00;94514.25;5071969;28;20037;-83
2022/12/01 09:53:21;;;;;;;22.20;9.00;;;;;;;8.47;100.00;94516.84;5058864;28;20033;-83
2022/12/01 09:55:48;;;;;;;21.88;9.65;;;;;;;8.01;100.00;94518.00;5060310;28;20549;-83
2022/12/01 09:58:19;;;;;;;17.92;8.32;;;;;;;8.41;100.00;94512.59;5095956;28;20040;-84
2022/12/01 10:00:46;;;;;;;15.75;7.18;;;;;;;8.87;100.00;94509.56;5095822;28;20036;-87
2022/12/01 10:03:27;;;;;;;16.48;7.50;;;;;;;8.63;97.98;94505.50;5097031;28;20060;-87
2022/12/01 10:05:56;;;;;;;15.45;7.35;;;;;;;8.71;96.68;94495.59;5096077;28;20031;-87
2022/12/01 10:08:26;;;;;;;15.80;7.47;;;;;;;8.47;100.00;94490.72;5096130;28;20340;-87
2022/12/01 10:10:55;;;;;;;14.23;6.80;;;;;;;9.16;99.52;94489.03;5095778;28;20058;-87
2022/12/01 10:13:23;;;;;;;54.38;24.88;;;;;;;9.02;100.00;94488.72;5095762;28;20056;-86
2022/12/01 10:16:12;;;;;;;18.88;8.60;;;;;;;8.66;95.75;94488.50;5096984;28;20059;-86
2022/12/01 10:19:02;;;;;;;13.85;6.90;;;;;;;9.23;92.57;94483.56;5095815;28;20036;-86
2022/12/01 10:21:49;;;;;;;15.32;7.30;;;;;;;8.59;100.00;94480.13;5095727;28;20028;-86
2022/12/01 10:24:32;;;;;;;18.52;8.77;;;;;;;8.79;99.24;94482.06;5096880;28;20085;-87
2022/12/01 10:27:20;;;;;;;15.88;7.10;;;;;;;8.44;97.66;94475.53;5090385;28;20078;-87
2022/12/01 10:29:48;;;;;;;18.35;8.55;;;;;;;8.71;100.00;94475.50;5060562;28;20043;-86
2022/12/01 10:32:13;;;;;;;61.53;29.27;;;;;;;8.26;100.00;94476.72;5060496;28;20029;-86
2022/12/01 10:34:40;;;;;;;38.97;18.65;;;;;;;8.61;100.00;94473.63;5060401;28;20039;-85
2022/12/01 10:37:24;;;;;;;17.20;8.30;;;;;;;8.38;100.00;94476.56;5059410;28;20037;-85
2022/12/01 10:39:51;;;;;;;14.00;6.55;;;;;;;7.85;100.00;94477.16;5059265;28;20024;-85
2022/12/01 10:42:40;;;;;;;18.23;7.30;;;;;;;7.90;100.00;94464.94;5058913;28;20040;-85
2022/12/01 10:45:14;;;;;;;10.13;5.32;;;;;;;8.47;99.76;94467.22;5059194;28;20029;-85
2022/12/01 10:48:25;;;;;;;12.73;6.10;;;;;;;8.19;96.81;94466.50;5059310;28;20033;-84
2022/12/01 10:50:53;;;;;;;12.73;6.10;;;;;;;8.26;95.85;94454.00;5070806;28;20052;-86
2022/12/01 10:53:30;;;;;;;15.63;7.30;;;;;;;8.69;94.65;94455.88;5060730;28;20035;-86
2022/12/01 10:56:07;;;;;;;14.10;6.70;;;;;;;8.07;100.00;94454.41;5058740;28;20083;-85
2022/12/01 10:58:53;;;;;;;12.25;6.47;;;;;;;8.95;95.69;94445.56;5042037;28;20032;-86
2022/12/01 11:01:24;;;;;;;15.27;7.03;;;;;;;8.97;100.00;94449.50;5058536;28;20056;-86
2022/12/01 11:04:00;;;;;;;26.15;12.00;;;;;;;8.26;100.00;94445.41;5058589;28;20036;-86
2022/12/01 11:06:28;;;;;;;13.75;6.90;;;;;;;8.24;100.00;94450.88;5058846;28;20461;-86
2022/12/01 11:08:59;;;;;;;22.35;10.95;;;;;;;8.48;99.77;94450.50;5042100;28;20040;-86
2022/12/01 11:11:32;;;;;;;16.77;5.95;;;;;;;8.38;95.81;94446.00;5058684;28;20032;-87
2022/12/01 11:13:58;;;;;;;;;;;;;;;8.32;100.00;94447.81;5060335;28;20028;-86
2022/12/01 11:16:39;;;;;;;15.40;5.70;;;;;;;7.87;100.00;94446.38;5058326;28;19963;-86
2022/12/01 11:19:08;;;;;;;12.45;5.97;;;;;;;8.02;100.00;94446.50;5058355;28;20144;-87
2022/12/01 11:21:33;;;;;;;16.75;5.90;;;;;;;8.49;97.64;94446.88;5059347;28;20053;-86
2022/12/01 11:23:58;;;;;;;16.75;8.40;;;;;;;8.02;100.00;94443.91;5059919;28;20449;-86
2022/12/01 11:26:27;;;;;;;12.43;6.72;;;;;;;8.19;100.00;94448.22;5059698;28;20429;-86
2022/12/01 11:29:05;;;;;;;18.00;7.85;;;;;;;8.67;100.00;94447.53;5058089;28;20385;-86
2022/12/01 11:31:46;;;;;;;18.50;7.80;;;;;;;8.60;100.00;94443.28;5059461;28;20029;-86
2022/12/01 11:34:18;;;;;;;10.52;5.22;;;;;;;8.86;100.00;94440.81;5058085;28;20042;-86
2022/12/01 11:36:47;;;;;;;14.23;5.90;;;;;;;8.97;96.40;94441.66;5058061;28;20040;-86
2022/12/01 11:39:26;;;;;;;13.68;6.15;;;;;;;9.23;92.92;94446.22;5056695;28;20334;-86
2022/12/01 11:41:58;;;;;;;11.75;5.35;;;;;;;8.81;91.49;94448.63;5059167;28;20033;-86
2022/12/01 11:44:24;;;;;;;78.20;35.22;;;;;;;8.37;100.00;94444.41;5058023;28;20119;-87